createdAt,value
2023-05-22T00:00:23.474Z,13.36
2023-05-22T00:02:52.631Z,13.19
2023-05-22T00:05:22.617Z,13.19
2023-05-22T00:07:51.195Z,13.24
2023-05-22T00:10:19.496Z,13.27
2023-05-22T00:12:47.770Z,13.15
2023-05-22T00:15:16.124Z,13.11
2023-05-22T00:17:44.557Z,13.17
2023-05-22T00:20:13.517Z,13.30
2023-05-22T00:22:43.159Z,13.27
2023-05-22T00:25:12.371Z,13.31
2023-05-22T00:27:40.656Z,13.24
2023-05-22T00:30:09.854Z,13.17
2023-05-22T00:32:38.265Z,13.21
2023-05-22T00:35:07.685Z,13.31
2023-05-22T00:37:35.906Z,13.25
2023-05-22T00:40:06.746Z,13.35
2023-05-22T00:42:35.062Z,13.36
2023-05-22T00:45:03.327Z,13.22
2023-05-22T00:47:32.371Z,13.33
2023-05-22T00:50:01.844Z,13.26
2023-05-22T00:52:30.410Z,13.25
2023-05-22T00:54:59.715Z,13.41
2023-05-22T00:57:29.360Z,13.48
2023-05-22T00:59:57.707Z,13.43
2023-05-22T01:02:28.178Z,13.34
2023-05-22T01:04:58.136Z,13.50
2023-05-22T01:07:26.593Z,13.39
2023-05-22T01:09:56.254Z,13.41
2023-05-22T01:12:32.275Z,13.54
2023-05-22T01:15:11.782Z,13.52
2023-05-22T01:17:46.337Z,13.41
2023-05-22T01:20:22.482Z,13.37
2023-05-22T01:23:16.233Z,13.33
2023-05-22T01:26:03.916Z,13.19
2023-05-22T01:28:43.734Z,13.38
2023-05-22T01:31:16.978Z,13.48
2023-05-22T01:33:50.075Z,13.43
2023-05-22T01:36:22.554Z,13.39
2023-05-22T01:38:52.106Z,13.40
2023-05-22T01:41:21.360Z,13.46
2023-05-22T01:43:49.883Z,13.44
2023-05-22T01:46:19.669Z,13.29
2023-05-22T01:48:49.348Z,13.35
2023-05-22T01:51:24.988Z,13.17
2023-05-22T01:53:58.462Z,13.23
2023-05-22T01:56:35.338Z,13.15
2023-05-22T01:59:11.665Z,13.17
2023-05-22T02:01:42.711Z,13.27
2023-05-22T02:04:11.586Z,13.27
2023-05-22T02:06:40.734Z,13.22
2023-05-22T02:09:09.974Z,13.16
2023-05-22T02:11:41.378Z,13.25
2023-05-22T02:14:13.696Z,13.31
2023-05-22T02:16:46.896Z,13.25
2023-05-22T02:19:15.726Z,13.10
2023-05-22T02:21:44.637Z,13.22
2023-05-22T02:24:12.893Z,13.29
2023-05-22T02:26:43.489Z,13.32
2023-05-22T02:29:12.980Z,13.26
2023-05-22T02:31:41.405Z,13.34
2023-05-22T02:34:11.162Z,13.34
2023-05-22T02:36:39.836Z,13.29
2023-05-22T02:39:11.824Z,13.32
2023-05-22T02:41:40.614Z,13.31
2023-05-22T02:44:09.204Z,13.23
2023-05-22T02:46:37.582Z,13.22
2023-05-22T02:49:05.923Z,13.26
2023-05-22T02:51:35.830Z,13.27
2023-05-22T02:54:04.358Z,13.16
2023-05-22T02:56:32.736Z,13.17
2023-05-22T02:59:00.984Z,13.19
2023-05-22T03:01:30.629Z,13.17
2023-05-22T03:03:59.105Z,13.25
2023-05-22T03:06:27.352Z,13.25
2023-05-22T03:08:57.165Z,13.35
2023-05-22T03:11:25.708Z,13.32
2023-05-22T03:13:54.199Z,13.14
2023-05-22T03:16:22.503Z,13.19
2023-05-22T03:18:53.503Z,13.29
2023-05-22T03:21:21.904Z,13.22
2023-05-22T03:23:50.136Z,13.19
2023-05-22T03:26:19.724Z,13.24
2023-05-22T03:28:48.267Z,13.33
2023-05-22T03:31:17.901Z,13.21
2023-05-22T03:33:59.735Z,13.24
2023-05-22T03:36:28.716Z,13.32
2023-05-22T03:38:57.834Z,13.29
2023-05-22T03:41:27.482Z,13.43
2023-05-22T03:43:57.322Z,13.38
2023-05-22T03:46:26.574Z,13.37
2023-05-22T03:48:55.001Z,13.40
2023-05-22T03:51:23.241Z,13.30
2023-05-22T03:53:51.512Z,13.35
2023-05-22T03:56:19.982Z,13.39
2023-05-22T03:58:51.408Z,13.37
2023-05-22T04:01:19.886Z,13.33
2023-05-22T04:03:48.144Z,13.25
2023-05-22T04:06:16.456Z,13.39
2023-05-22T04:08:44.889Z,13.34
2023-05-22T04:11:15.719Z,13.41
2023-05-22T04:13:44.015Z,13.33
2023-05-22T04:16:13.805Z,13.33
2023-05-22T04:18:42.036Z,13.44
2023-05-22T04:21:10.473Z,13.58
2023-05-22T04:23:43.300Z,13.47
2023-05-22T04:26:11.786Z,13.48
2023-05-22T04:28:40.450Z,13.45
2023-05-22T04:31:08.802Z,13.48
2023-05-22T04:33:40.097Z,13.48
2023-05-22T04:36:12.292Z,13.52
2023-05-22T04:38:41.494Z,13.62
2023-05-22T04:41:13.512Z,13.61
2023-05-22T04:43:41.855Z,13.59
2023-05-22T04:46:10.220Z,13.60
2023-05-22T04:48:40.520Z,13.59
2023-05-22T04:51:09.654Z,13.60
2023-05-22T04:53:38.762Z,13.61
2023-05-22T04:56:08.099Z,13.52
2023-05-22T04:58:37.923Z,13.44
2023-05-22T05:01:07.419Z,13.56
2023-05-22T05:03:35.916Z,13.53
2023-05-22T05:06:06.027Z,13.56
2023-05-22T05:08:34.345Z,13.61
2023-05-22T05:11:02.606Z,13.61
2023-05-22T05:13:30.964Z,13.46
2023-05-22T05:16:00.776Z,13.43
2023-05-22T05:18:29.309Z,13.41
2023-05-22T05:20:57.766Z,13.58
2023-05-22T05:23:27.394Z,13.51
2023-05-22T05:25:56.934Z,13.70
2023-05-22T05:28:26.512Z,13.68
2023-05-22T05:30:55.922Z,13.63
2023-05-22T05:33:56.696Z,13.78
2023-05-22T05:36:36.762Z,13.89
2023-05-22T05:39:06.745Z,13.64
2023-05-22T05:41:36.645Z,13.55
2023-05-22T05:44:09.962Z,13.66
2023-05-22T05:46:39.300Z,13.60
2023-05-22T05:49:10.191Z,13.75
2023-05-22T05:51:39.960Z,13.77
2023-05-22T05:54:10.991Z,13.76
2023-05-22T05:56:39.915Z,13.75
2023-05-22T05:59:08.272Z,13.80
2023-05-22T06:01:39.898Z,13.92
2023-05-22T06:04:14.222Z,13.91
2023-05-22T06:06:44.405Z,14.06
2023-05-22T06:09:14.186Z,13.98
2023-05-22T06:12:01.530Z,13.82
2023-05-22T06:14:30.717Z,13.95
2023-05-22T06:16:59.133Z,13.95
2023-05-22T06:19:28.332Z,14.01
2023-05-22T06:21:57.069Z,14.07
2023-05-22T06:24:27.490Z,14.01
2023-05-22T06:26:55.956Z,14.17
2023-05-22T06:29:24.280Z,14.12
2023-05-22T06:31:54.536Z,14.19
2023-05-22T06:34:23.835Z,14.01
2023-05-22T06:36:52.843Z,13.98
2023-05-22T06:39:27.159Z,14.03
2023-05-22T06:41:58.258Z,13.98
2023-05-22T06:44:26.816Z,14.03
2023-05-22T06:46:57.370Z,14.08
2023-05-22T06:49:27.203Z,14.19
2023-05-22T06:51:57.142Z,14.32
2023-05-22T06:54:28.677Z,14.32
2023-05-22T06:57:00.507Z,14.28
2023-05-22T06:59:29.539Z,14.40
2023-05-22T07:02:00.871Z,14.34
2023-05-22T07:04:59.338Z,14.34
2023-05-22T07:07:35.384Z,14.39
2023-05-22T07:10:04.316Z,14.35
2023-05-22T07:12:34.260Z,14.27
2023-05-22T07:15:02.565Z,14.33
2023-05-22T07:17:33.069Z,14.33
2023-05-22T07:20:01.393Z,14.54
2023-05-22T07:22:31.185Z,14.50
2023-05-22T07:24:59.600Z,14.62
2023-05-22T07:27:33.971Z,14.49
2023-05-22T07:30:04.001Z,14.62
2023-05-22T07:32:33.605Z,14.64
2023-05-22T07:35:04.832Z,14.54
2023-05-22T07:37:33.584Z,14.58
2023-05-22T07:40:02.154Z,14.51
2023-05-22T07:42:32.040Z,14.37
2023-05-22T07:45:02.491Z,14.67
2023-05-22T07:47:30.893Z,14.71
2023-05-22T07:49:59.197Z,14.93
2023-05-22T07:52:27.601Z,14.77
2023-05-22T07:54:56.114Z,14.72
2023-05-22T07:57:26.596Z,14.55
2023-05-22T07:59:59.302Z,14.42
2023-05-22T08:02:29.000Z,14.78
2023-05-22T08:04:57.432Z,14.71
2023-05-22T08:07:25.852Z,14.87
2023-05-22T08:09:54.164Z,15.01
2023-05-22T08:12:22.432Z,14.98
2023-05-22T08:14:50.702Z,15.02
2023-05-22T08:17:19.152Z,14.72
2023-05-22T08:19:48.963Z,15.25
2023-05-22T08:22:17.801Z,15.11
2023-05-22T08:24:46.042Z,14.93
2023-05-22T08:27:14.271Z,15.01
2023-05-22T08:29:42.566Z,14.73
2023-05-22T08:32:10.822Z,14.83
2023-05-22T08:34:40.304Z,15.01
2023-05-22T08:37:10.661Z,15.07
2023-05-22T08:39:38.892Z,15.18
2023-05-22T08:42:07.585Z,15.26
2023-05-22T08:44:36.029Z,15.42
2023-05-22T08:47:09.951Z,15.66
2023-05-22T08:49:40.149Z,15.52
2023-05-22T08:52:14.519Z,15.76
2023-05-22T08:54:54.061Z,15.82
2023-05-22T08:57:23.145Z,15.80
2023-05-22T08:59:51.880Z,15.83
2023-05-22T09:02:21.175Z,16.05
2023-05-22T09:04:49.389Z,16.05
2023-05-22T09:07:22.139Z,16.04
2023-05-22T09:09:50.873Z,16.21
2023-05-22T09:12:19.147Z,16.32
2023-05-22T09:14:47.409Z,16.15
2023-05-22T09:17:17.114Z,16.29
2023-05-22T09:19:46.385Z,16.01
2023-05-22T09:22:16.763Z,16.28
2023-05-22T09:24:47.075Z,16.20
2023-05-22T09:27:15.501Z,16.18
2023-05-22T09:29:50.804Z,16.28
2023-05-22T09:32:20.992Z,16.28
2023-05-22T09:34:49.496Z,16.25
2023-05-22T09:37:19.234Z,16.42
2023-05-22T09:39:51.507Z,16.24
2023-05-22T09:42:19.977Z,16.56
2023-05-22T09:44:50.158Z,16.78
2023-05-22T09:47:18.449Z,16.62
2023-05-22T09:49:47.175Z,16.63
2023-05-22T09:52:16.576Z,17.06
2023-05-22T09:54:51.054Z,17.04
2023-05-22T09:57:20.711Z,17.18
2023-05-22T09:59:54.270Z,17.24
2023-05-22T10:02:24.141Z,17.22
2023-05-22T10:04:53.423Z,17.28
2023-05-22T10:07:24.128Z,17.00
2023-05-22T10:09:58.099Z,17.02
2023-05-22T10:12:29.825Z,17.52
2023-05-22T10:14:58.591Z,17.38
2023-05-22T10:17:27.740Z,17.46
2023-05-22T10:19:57.449Z,17.40
2023-05-22T10:22:28.741Z,17.63
2023-05-22T10:24:59.800Z,17.59
2023-05-22T10:27:28.101Z,17.98
2023-05-22T10:30:00.870Z,18.32
2023-05-22T10:32:36.931Z,18.42
2023-05-22T10:35:19.363Z,17.85
2023-05-22T10:37:52.182Z,18.15
2023-05-22T10:40:29.007Z,18.18
2023-05-22T10:43:00.992Z,18.06
2023-05-22T10:45:30.112Z,17.77
2023-05-22T10:48:05.612Z,17.97
2023-05-22T10:50:34.875Z,18.08
2023-05-22T10:53:23.522Z,18.62
2023-05-22T10:55:54.422Z,18.68
2023-05-22T10:58:27.833Z,18.92
2023-05-22T11:01:15.956Z,19.27
2023-05-22T11:03:54.497Z,19.90
2023-05-22T11:06:36.376Z,20.17
2023-05-22T11:09:21.829Z,19.75
2023-05-22T11:12:18.271Z,20.28
2023-05-22T11:14:54.097Z,19.61
2023-05-22T11:17:24.308Z,19.97
2023-05-22T11:20:00.585Z,20.05
2023-05-22T11:22:33.438Z,19.87
2023-05-22T11:25:06.185Z,19.67
2023-05-22T11:27:36.490Z,19.60
2023-05-22T11:30:06.700Z,19.59
2023-05-22T11:32:37.235Z,19.43
2023-05-22T11:35:08.375Z,19.25
2023-05-22T11:37:40.086Z,19.42
2023-05-22T11:40:09.642Z,19.47
2023-05-22T11:42:39.419Z,19.29
2023-05-22T11:45:08.604Z,19.38
2023-05-22T11:47:37.437Z,19.52
2023-05-22T11:50:07.208Z,19.92
2023-05-22T11:52:37.108Z,20.86
2023-05-22T11:55:06.474Z,20.31
2023-05-22T11:57:35.424Z,20.27
2023-05-22T12:00:06.613Z,20.09
2023-05-22T12:02:46.022Z,20.05
2023-05-22T12:05:15.931Z,20.03
2023-05-22T12:07:44.642Z,20.13
2023-05-22T12:10:14.865Z,20.17
2023-05-22T12:12:44.512Z,20.43
2023-05-22T12:15:15.276Z,20.78
2023-05-22T12:17:44.255Z,20.90
2023-05-22T12:20:14.552Z,21.06
2023-05-22T12:22:44.116Z,21.68
2023-05-22T12:25:17.210Z,21.39
2023-05-22T12:27:46.293Z,21.45
2023-05-22T12:30:16.959Z,20.91
2023-05-22T12:32:49.735Z,20.99
2023-05-22T12:35:18.350Z,20.90
2023-05-22T12:37:50.703Z,20.28
2023-05-22T12:40:19.320Z,20.41
2023-05-22T12:42:48.809Z,20.93
2023-05-22T12:45:18.877Z,20.77
2023-05-22T12:47:47.368Z,20.59
2023-05-22T12:50:15.773Z,20.41
2023-05-22T12:52:44.029Z,20.74
2023-05-22T12:55:12.751Z,20.65
2023-05-22T12:57:41.005Z,20.30
2023-05-22T13:00:10.141Z,19.95
2023-05-22T13:02:39.909Z,19.61
2023-05-22T13:05:08.950Z,19.87
2023-05-22T13:07:37.918Z,19.69
2023-05-22T13:10:06.959Z,19.87
2023-05-22T13:12:35.298Z,19.40
2023-05-22T13:15:03.682Z,19.28
2023-05-22T13:17:33.985Z,19.06
2023-05-22T13:20:04.459Z,19.18
2023-05-22T13:22:32.779Z,19.51
2023-05-22T13:25:01.124Z,19.62
2023-05-22T13:27:31.940Z,19.05
2023-05-22T13:30:02.048Z,19.27
2023-05-22T13:32:30.722Z,19.51
2023-05-22T13:34:58.961Z,19.35
2023-05-22T13:37:28.619Z,19.30
2023-05-22T13:39:56.913Z,19.30
2023-05-22T13:42:25.281Z,19.10
2023-05-22T13:44:53.588Z,19.26
2023-05-22T13:47:23.002Z,19.30
2023-05-22T13:49:51.762Z,19.36
2023-05-22T13:52:20.116Z,19.40
2023-05-22T13:54:50.264Z,19.51
2023-05-22T13:57:18.632Z,19.45
2023-05-22T13:59:46.949Z,19.39
2023-05-22T14:02:15.428Z,19.18
2023-05-22T14:04:43.818Z,18.56
2023-05-22T14:07:12.122Z,18.81
2023-05-22T14:09:40.417Z,18.84
2023-05-22T14:12:10.171Z,18.84
2023-05-22T14:14:38.484Z,19.42
2023-05-22T14:17:08.264Z,19.33
2023-05-22T14:19:36.851Z,19.94
2023-05-22T14:22:05.546Z,19.83
2023-05-22T14:24:33.864Z,19.28
2023-05-22T14:27:02.130Z,19.10
2023-05-22T14:29:32.515Z,18.97
2023-05-22T14:32:04.976Z,18.55
2023-05-22T14:34:33.373Z,18.35
2023-05-22T14:37:01.683Z,18.41
2023-05-22T14:39:30.050Z,18.72
2023-05-22T14:41:58.605Z,18.64
2023-05-22T14:44:26.943Z,18.44
2023-05-22T14:46:56.567Z,18.56
2023-05-22T14:49:24.954Z,18.58
2023-05-22T14:51:53.298Z,18.27
2023-05-22T14:54:23.693Z,18.32
2023-05-22T14:56:51.993Z,18.40
2023-05-22T14:59:20.216Z,18.56
2023-05-22T15:01:50.493Z,19.05
2023-05-22T15:04:20.772Z,19.08
2023-05-22T15:06:49.388Z,18.82
2023-05-22T15:09:17.653Z,18.72
2023-05-22T15:11:49.125Z,18.67
2023-05-22T15:14:17.615Z,18.98
2023-05-22T15:16:46.989Z,19.02
2023-05-22T15:19:15.334Z,19.23
2023-05-22T15:21:45.048Z,20.19
2023-05-22T15:24:13.353Z,19.25
2023-05-22T15:26:41.592Z,19.29
2023-05-22T15:29:09.909Z,19.14
2023-05-22T15:31:38.558Z,18.76
2023-05-22T15:34:06.871Z,18.82
2023-05-22T15:36:37.140Z,18.63
2023-05-22T15:39:07.245Z,18.76
2023-05-22T15:41:35.508Z,18.95
2023-05-22T15:44:03.731Z,19.10
2023-05-22T15:46:32.338Z,19.25
2023-05-22T15:49:00.626Z,19.85
2023-05-22T15:51:28.867Z,19.89
2023-05-22T15:53:58.024Z,19.71
2023-05-22T15:56:27.744Z,20.69
2023-05-22T15:58:56.236Z,21.03
2023-05-22T16:01:25.207Z,20.27
2023-05-22T16:03:53.653Z,20.76
2023-05-22T16:06:23.296Z,20.59
2023-05-22T16:08:51.544Z,20.48
2023-05-22T16:11:19.847Z,20.59
2023-05-22T16:13:50.155Z,19.95
2023-05-22T16:16:18.493Z,20.12
2023-05-22T16:18:49.844Z,19.87
2023-05-22T16:21:18.131Z,19.85
2023-05-22T16:23:46.402Z,19.39
2023-05-22T16:26:17.934Z,19.68
2023-05-22T16:28:46.327Z,19.24
2023-05-22T16:31:19.270Z,19.30
2023-05-22T16:33:47.791Z,19.56
2023-05-22T16:36:16.076Z,19.57
2023-05-22T16:38:44.424Z,19.58
2023-05-22T16:41:12.781Z,20.81
2023-05-22T16:43:41.051Z,21.81
2023-05-22T16:46:09.274Z,21.97
2023-05-22T16:48:39.005Z,21.87
2023-05-22T16:51:07.424Z,22.64
2023-05-22T16:53:37.396Z,22.55
2023-05-22T16:56:06.993Z,23.29
2023-05-22T16:58:35.634Z,23.41
2023-05-22T17:01:06.319Z,22.91
2023-05-22T17:03:35.482Z,22.70
2023-05-22T17:06:05.889Z,21.95
2023-05-22T17:08:34.151Z,21.19
2023-05-22T17:11:02.465Z,20.70
2023-05-22T17:13:31.033Z,21.62
2023-05-22T17:15:59.439Z,22.35
2023-05-22T17:18:27.780Z,21.62
2023-05-22T17:20:56.070Z,21.70
2023-05-22T17:23:25.930Z,21.78
2023-05-22T17:26:07.824Z,21.83
2023-05-22T17:28:36.418Z,21.61
2023-05-22T17:31:04.654Z,21.89
2023-05-22T17:33:33.514Z,21.05
2023-05-22T17:36:01.885Z,20.37
2023-05-22T17:38:31.543Z,19.85
2023-05-22T17:41:00.842Z,19.37
2023-05-22T17:43:29.444Z,19.33
2023-05-22T17:45:58.450Z,19.22
2023-05-22T17:48:27.199Z,19.18
2023-05-22T17:50:55.912Z,19.01
2023-05-22T17:53:24.206Z,19.06
2023-05-22T17:55:54.047Z,18.69
2023-05-22T17:58:22.570Z,18.54
2023-05-22T18:00:50.935Z,18.49
2023-05-22T18:03:20.834Z,18.50
2023-05-22T18:05:49.471Z,18.49
2023-05-22T18:08:17.906Z,18.47
2023-05-22T18:10:46.158Z,18.46
2023-05-22T18:13:16.088Z,18.43
2023-05-22T18:15:44.454Z,18.37
2023-05-22T18:18:13.192Z,18.36
2023-05-22T18:20:41.759Z,18.08
2023-05-22T18:23:10.304Z,17.96
2023-05-22T18:25:38.576Z,17.90
2023-05-22T18:28:08.247Z,17.81
2023-05-22T18:30:38.184Z,17.60
2023-05-22T18:33:06.813Z,17.49
2023-05-22T18:35:35.069Z,17.40
2023-05-22T18:38:03.695Z,17.24
2023-05-22T18:40:32.099Z,17.24
2023-05-22T18:43:03.022Z,17.05
2023-05-22T18:45:31.337Z,17.00
2023-05-22T18:48:01.042Z,16.99
2023-05-22T18:50:29.573Z,16.70
2023-05-22T18:52:57.910Z,16.63
2023-05-22T18:55:26.375Z,16.63
2023-05-22T18:57:54.733Z,16.61
2023-05-22T19:00:23.110Z,16.48
2023-05-22T19:02:51.464Z,16.39
2023-05-22T19:05:21.468Z,16.35
2023-05-22T19:07:49.934Z,16.14
2023-05-22T19:10:18.269Z,16.14
2023-05-22T19:12:46.513Z,16.04
2023-05-22T19:15:14.871Z,16.00
2023-05-22T19:17:43.274Z,15.97
2023-05-22T19:20:12.332Z,15.60
2023-05-22T19:22:42.157Z,15.67
2023-05-22T19:25:11.109Z,15.63
2023-05-22T19:27:39.612Z,15.36
2023-05-22T19:30:09.097Z,15.25
2023-05-22T19:32:37.569Z,15.32
2023-05-22T19:35:06.661Z,15.11
2023-05-22T19:37:34.973Z,15.10
2023-05-22T19:40:06.246Z,15.01
2023-05-22T19:42:34.743Z,15.00
2023-05-22T19:45:03.488Z,14.93
2023-05-22T19:47:32.265Z,14.96
2023-05-22T19:50:00.597Z,14.96
2023-05-22T19:52:29.030Z,14.97
2023-05-22T19:54:57.421Z,14.94
2023-05-22T19:57:27.199Z,14.88
2023-05-22T19:59:55.724Z,14.80
2023-05-22T20:02:24.136Z,14.89
2023-05-22T20:04:55.027Z,14.82
2023-05-22T20:07:23.414Z,14.83
2023-05-22T20:09:51.782Z,14.78
2023-05-22T20:12:20.071Z,14.62
2023-05-22T20:14:49.974Z,14.64
2023-05-22T20:17:22.386Z,14.52
2023-05-22T20:19:50.932Z,14.44
2023-05-22T20:22:19.248Z,14.51
2023-05-22T20:24:48.315Z,14.56
2023-05-22T20:27:16.827Z,14.63
2023-05-22T20:29:45.262Z,14.56
2023-05-22T20:32:14.960Z,14.57
2023-05-22T20:34:45.168Z,14.69
2023-05-22T20:37:13.842Z,14.62
2023-05-22T20:39:42.795Z,14.54
2023-05-22T20:42:13.044Z,14.45
2023-05-22T20:44:42.013Z,14.51
2023-05-22T20:47:10.866Z,14.55
2023-05-22T20:49:41.266Z,14.40
2023-05-22T20:52:10.186Z,14.43
2023-05-22T20:54:38.432Z,14.15
2023-05-22T20:57:07.060Z,14.36
2023-05-22T20:59:37.478Z,14.20
2023-05-22T21:02:06.078Z,14.22
2023-05-22T21:04:34.315Z,14.26
2023-05-22T21:07:04.937Z,14.23
2023-05-22T21:09:33.262Z,13.92
2023-05-22T21:12:01.546Z,13.93
2023-05-22T21:14:29.790Z,13.99
2023-05-22T21:16:58.077Z,14.11
2023-05-22T21:19:26.783Z,13.98
2023-05-22T21:21:55.066Z,14.11
2023-05-22T21:24:24.651Z,14.09
2023-05-22T21:26:52.928Z,13.90
2023-05-22T21:29:21.219Z,13.93
2023-05-22T21:31:49.579Z,13.75
2023-05-22T21:34:17.895Z,13.70
2023-05-22T21:36:46.123Z,13.73
2023-05-22T21:39:14.514Z,13.70
2023-05-22T21:41:44.134Z,13.50
2023-05-22T21:44:12.374Z,13.37
2023-05-22T21:46:40.659Z,13.22
2023-05-22T21:49:09.747Z,13.19
2023-05-22T21:51:38.417Z,13.15
2023-05-22T21:54:06.837Z,13.12
2023-05-22T21:56:35.063Z,13.11
2023-05-22T21:59:05.889Z,13.17
2023-05-22T22:01:34.354Z,13.12
2023-05-22T22:04:02.689Z,13.15
2023-05-22T22:06:31.318Z,13.19
2023-05-22T22:09:00.664Z,13.11
2023-05-22T22:11:28.966Z,13.11
2023-05-22T22:13:57.251Z,13.10
2023-05-22T22:16:28.039Z,12.96
2023-05-22T22:18:58.121Z,12.99
2023-05-22T22:21:26.492Z,13.11
2023-05-22T22:23:54.822Z,13.08
2023-05-22T22:26:23.071Z,13.21
2023-05-22T22:28:51.379Z,13.07
2023-05-22T22:31:19.649Z,13.06
2023-05-22T22:33:49.275Z,13.03
2023-05-22T22:36:17.760Z,13.15
2023-05-22T22:38:46.021Z,13.11
2023-05-22T22:41:14.243Z,13.08
2023-05-22T22:43:42.498Z,13.22
2023-05-22T22:46:10.792Z,13.17
2023-05-22T22:48:41.702Z,13.05
2023-05-22T22:51:11.595Z,13.12
2023-05-22T22:53:40.214Z,13.07
2023-05-22T22:56:08.643Z,13.08
2023-05-22T22:58:36.938Z,13.16
2023-05-22T23:01:05.573Z,13.24
2023-05-22T23:03:35.461Z,13.26
2023-05-22T23:06:03.968Z,13.25
2023-05-22T23:08:33.620Z,13.26
2023-05-22T23:11:01.870Z,13.21
2023-05-22T23:13:30.153Z,13.21
2023-05-22T23:15:58.470Z,13.21
2023-05-22T23:18:26.729Z,13.26
2023-05-22T23:20:54.989Z,13.31
2023-05-22T23:23:23.272Z,13.32
2023-05-22T23:25:53.058Z,13.38
2023-05-22T23:28:21.318Z,13.56
2023-05-22T23:30:49.630Z,13.52
2023-05-22T23:33:17.855Z,13.47
2023-05-22T23:35:46.142Z,13.50
2023-05-22T23:38:14.474Z,13.54
2023-05-22T23:40:42.698Z,13.60
2023-05-22T23:43:12.297Z,13.75
2023-05-22T23:45:40.789Z,13.77
2023-05-22T23:48:09.201Z,13.78
2023-05-22T23:50:37.583Z,13.84
2023-05-22T23:53:05.897Z,13.85
2023-05-22T23:55:34.154Z,13.82
2023-05-22T23:58:02.387Z,13.90
